Disclaimer

Please do not use the information listed here in-flight or in-navigation, as they are not provided to us by the airports but are provided by volunteers, so they might be outdated.

Search


Regions


Airport information page

Radio informations:
Tower (TWR) - 120.4 MHz

Airport informations:
Latitude: 62° 34' 42.28" N
Longitude: 011° 20' 32.45" E
Elevation: 2054 feet - 626 meters
Operating hours: Remarks
Operating agency: Civil government, landing fees and diplomatic clearance may be required
Timezone: UTC+1(+2DT) - Last Sunday in March to last Sunday in October
Fuel: Jet A1, without icing nhibitor.

100/130 MIL Spec, low lead, aviation gasoline (BLUE)

Runway information:
14/32 - 5643 x 131 feet< - >1720 x 40 meters

Recent METARs:
ENRO 211850Z AUTO VRB02KT 9999NDV OVC004/// M08/M08 Q1031
ENRO 211920Z AUTO VRB02KT 9999NDV OVC003/// M08/M08 Q1031
ENRO 211950Z AUTO VRB02KT 9999NDV OVC003/// M08/M08 Q1030

Airport on the map: